createdAt,value
2017-05-01T00:00:00.120Z,48.3
2017-05-01T00:01:01.381Z,48.11
2017-05-01T00:02:02.646Z,48.11
2017-05-01T00:03:03.891Z,48.11
2017-05-01T00:04:05.145Z,48.02
2017-05-01T00:05:06.416Z,48.3
2017-05-01T00:06:07.648Z,48.39
2017-05-01T00:07:08.906Z,48.3
2017-05-01T00:08:10.141Z,48.3
2017-05-01T00:09:11.389Z,48.49
2017-05-01T00:10:12.652Z,48.49
2017-05-01T00:11:13.914Z,48.87
2017-05-01T00:12:15.131Z,49.54
2017-05-01T00:13:16.443Z,49.06
2017-05-01T00:14:17.701Z,48.87
2017-05-01T00:15:18.919Z,49.35
2017-05-01T00:16:20.167Z,48.97
2017-05-01T00:17:21.407Z,48.78
2017-05-01T00:18:22.798Z,48.97
2017-05-01T00:19:24.036Z,49.44
2017-05-01T00:20:25.270Z,49.54
2017-05-01T00:21:26.503Z,49.54
2017-05-01T00:22:27.758Z,49.35
2017-05-01T00:23:29.019Z,49.92
2017-05-01T00:24:30.256Z,49.61
2017-05-01T00:25:31.503Z,49.9
2017-05-01T00:26:32.860Z,49.99
2017-05-01T00:27:34.175Z,49.82
2017-05-01T00:28:35.419Z,50.09
2017-05-01T00:29:36.686Z,50.27
2017-05-01T00:30:37.898Z,50.37
2017-05-01T00:31:39.135Z,50.37
2017-05-01T00:32:40.483Z,50.56
2017-05-01T00:33:41.705Z,50.27
2017-05-01T00:34:42.932Z,50.85
2017-05-01T00:35:44.220Z,50.56
2017-05-01T00:36:45.453Z,51.23
2017-05-01T00:37:46.703Z,50.75
2017-05-01T00:38:47.940Z,50.85
2017-05-01T00:39:49.180Z,50.75
2017-05-01T00:40:50.434Z,50.85
2017-05-01T00:41:51.659Z,51.04
2017-05-01T00:42:52.916Z,50.85
2017-05-01T00:43:54.147Z,50.94
2017-05-01T00:44:55.435Z,51.42
2017-05-01T00:45:56.720Z,51.23
2017-05-01T00:46:57.943Z,51.32
2017-05-01T00:47:59.222Z,51.42
2017-05-01T00:49:00.451Z,51.14
2017-05-01T00:50:01.692Z,51.14
2017-05-01T00:51:03.095Z,51.61
2017-05-01T00:52:04.358Z,51.32
2017-05-01T00:53:05.579Z,51.32
2017-05-01T00:54:06.819Z,51.42
2017-05-01T00:55:08.045Z,51.32
2017-05-01T00:56:09.286Z,51.32
2017-05-01T00:57:10.543Z,51.89
2017-05-01T00:58:11.806Z,51.7
2017-05-01T00:59:13.118Z,51.8
2017-05-01T01:00:14.352Z,52.09
2017-05-01T01:01:15.585Z,52.18
2017-05-01T01:02:16.946Z,52.47
2017-05-01T01:03:18.212Z,52.47
2017-05-01T01:04:19.460Z,52.66
2017-05-01T01:05:20.749Z,52.47
2017-05-01T01:06:21.999Z,52.37
2017-05-01T01:07:23.235Z,52.37
2017-05-01T01:08:24.496Z,52.09
2017-05-01T01:09:25.805Z,52.37
2017-05-01T01:10:27.069Z,52.47
2017-05-01T01:11:28.452Z,52.37
2017-05-01T01:12:29.671Z,52.84
2017-05-01T01:13:30.911Z,52.37
2017-05-01T01:14:32.173Z,52.94
2017-05-01T01:15:33.385Z,53.52
2017-05-01T01:16:34.611Z,53.23
2017-05-01T01:17:35.884Z,53.61
2017-05-01T01:18:37.088Z,53.61
2017-05-01T01:19:38.318Z,53.61
2017-05-01T01:20:39.593Z,53.7
2017-05-01T01:21:40.828Z,53.58
2017-05-01T01:22:42.102Z,53.61
2017-05-01T01:23:43.350Z,54.15
2017-05-01T01:24:44.587Z,54.25
2017-05-01T01:25:45.812Z,54.25
2017-05-01T01:26:47.171Z,53.96
2017-05-01T01:27:48.427Z,54.25
2017-05-01T01:28:49.715Z,54.44
2017-05-01T01:29:50.977Z,55.29
2017-05-01T01:30:52.231Z,55.01
2017-05-01T01:31:53.463Z,55.2
2017-05-01T01:32:54.722Z,54.91
2017-05-01T01:33:55.937Z,55.2
2017-05-01T01:34:57.163Z,55.1
2017-05-01T01:35:58.553Z,55.49
2017-05-01T01:36:59.794Z,55.39
2017-05-01T01:38:01.022Z,55.39
2017-05-01T01:39:02.569Z,55.39
2017-05-01T01:40:03.700Z,55.39
2017-05-01T01:41:04.950Z,56.05
2017-05-01T01:42:06.225Z,55.96
2017-05-01T01:43:07.467Z,56.05
2017-05-01T01:44:08.726Z,56.24
2017-05-01T01:45:09.964Z,56.53
2017-05-01T01:46:11.205Z,56.24
2017-05-01T01:47:12.442Z,56.34
2017-05-01T01:48:13.674Z,57.01
2017-05-01T01:49:15.143Z,56.63
2017-05-01T01:50:16.381Z,57.1
2017-05-01T01:51:17.630Z,57.01
2017-05-01T01:52:18.885Z,57.2
2017-05-01T01:53:20.125Z,57.87
2017-05-01T01:54:21.400Z,57.58
2017-05-01T01:55:22.688Z,57.87
2017-05-01T01:56:23.940Z,57.58
2017-05-01T01:57:25.175Z,57.58
2017-05-01T01:58:26.407Z,58.12
2017-05-01T01:59:27.654Z,58.03
2017-05-01T02:00:28.994Z,57.93
2017-05-01T02:01:30.301Z,58.4
2017-05-01T02:02:31.518Z,58.69
2017-05-01T02:03:32.759Z,58.88
2017-05-01T02:04:34.026Z,58.88
2017-05-01T02:05:35.255Z,58.79
2017-05-01T02:06:36.588Z,59.17
2017-05-01T02:07:37.834Z,59.17
2017-05-01T02:08:39.096Z,59.45
2017-05-01T02:09:40.321Z,60.02
2017-05-01T02:10:41.586Z,60.02
2017-05-01T02:11:42.836Z,59.64
2017-05-01T02:12:44.102Z,59.83
2017-05-01T02:13:45.341Z,59.93
2017-05-01T02:14:46.670Z,60.31
2017-05-01T02:15:47.845Z,60.21
2017-05-01T02:16:49.193Z,60.5
2017-05-01T02:17:50.433Z,60.41
2017-05-01T02:18:51.692Z,60.6
2017-05-01T02:19:53.007Z,60.88
2017-05-01T02:20:54.310Z,60.78
2017-05-01T02:21:55.547Z,60.78
2017-05-01T02:22:56.784Z,61.32
2017-05-01T02:23:58.042Z,61.55
2017-05-01T02:24:59.265Z,61.55
2017-05-01T02:26:00.578Z,61.42
2017-05-01T02:27:01.849Z,61.61
2017-05-01T02:28:03.076Z,61.52
2017-05-01T02:29:04.310Z,61.71
2017-05-01T02:30:05.561Z,61.8
2017-05-01T02:31:06.895Z,62.18
2017-05-01T02:32:08.031Z,62.18
2017-05-01T02:33:09.302Z,61.74
2017-05-01T02:34:10.536Z,61.83
2017-05-01T02:35:11.778Z,61.74
2017-05-01T02:36:13.057Z,61.55
2017-05-01T02:37:14.287Z,61.26
2017-05-01T02:38:15.524Z,61.83
2017-05-01T02:39:16.950Z,61.74
2017-05-01T02:40:18.248Z,61.83
2017-05-01T02:41:19.481Z,61.83
2017-05-01T02:42:20.708Z,61.74
2017-05-01T02:43:21.957Z,62.4
2017-05-01T02:44:23.295Z,62.4
2017-05-01T02:45:24.864Z,62.18
2017-05-01T02:46:25.994Z,62.65
2017-05-01T02:47:27.265Z,62.85
2017-05-01T02:48:28.478Z,62.94
2017-05-01T02:49:29.753Z,62.94
2017-05-01T02:50:31.016Z,63.32
2017-05-01T02:51:32.271Z,63.51
2017-05-01T02:52:33.710Z,62.85
2017-05-01T02:53:34.976Z,62.65
2017-05-01T02:54:36.211Z,63.23
2017-05-01T02:55:37.448Z,63.13
2017-05-01T02:56:38.705Z,63.23
2017-05-01T02:57:40.053Z,63.42
2017-05-01T02:58:41.168Z,63.23
2017-05-01T02:59:42.405Z,63.13
2017-05-01T03:00:43.643Z,63.23
2017-05-01T03:01:44.914Z,63.42
2017-05-01T03:02:46.144Z,63.42
2017-05-01T03:03:47.454Z,63.04
2017-05-01T03:04:48.702Z,63.04
2017-05-01T03:05:49.933Z,63.99
2017-05-01T03:06:51.234Z,63.23
2017-05-01T03:07:52.475Z,63.42
2017-05-01T03:08:53.719Z,62.65
2017-05-01T03:09:55.029Z,63.51
2017-05-01T03:10:56.266Z,63.45
2017-05-01T03:11:57.525Z,62.69
2017-05-01T03:12:58.774Z,63.32
2017-05-01T03:14:00.024Z,63.07
2017-05-01T03:15:01.264Z,63.42
2017-05-01T03:16:02.516Z,63.45
2017-05-01T03:17:03.781Z,63.32
2017-05-01T03:18:04.994Z,63.6
2017-05-01T03:19:06.240Z,63.23
2017-05-01T03:20:07.479Z,63.07
2017-05-01T03:21:08.737Z,63.23
2017-05-01T03:22:10.046Z,63.23
2017-05-01T03:23:11.289Z,63.51
2017-05-01T03:24:12.584Z,63.35
2017-05-01T03:25:13.904Z,63.51
2017-05-01T03:26:15.155Z,63.23
2017-05-01T03:27:16.422Z,63.23
2017-05-01T03:28:17.729Z,63.51
2017-05-01T03:29:18.988Z,63.51
2017-05-01T03:30:20.208Z,64.27
2017-05-01T03:31:21.466Z,64.18
2017-05-01T03:32:22.660Z,63.99
2017-05-01T03:33:23.917Z,63.99
2017-05-01T03:34:25.273Z,64.18
2017-05-01T03:35:26.501Z,63.73
2017-05-01T03:36:27.736Z,63.32
2017-05-01T03:37:28.965Z,63.42
2017-05-01T03:38:30.204Z,63.6
2017-05-01T03:39:31.435Z,63.54
2017-05-01T03:40:32.701Z,63.26
2017-05-01T03:41:33.912Z,63.35
2017-05-01T03:42:35.180Z,63.45
2017-05-01T03:43:36.440Z,63.54
2017-05-01T03:44:37.669Z,63.54
2017-05-01T03:45:39.029Z,63.92
2017-05-01T03:46:40.270Z,63.45
2017-05-01T03:47:41.537Z,63.45
2017-05-01T03:48:42.836Z,63.35
2017-05-01T03:49:44.146Z,63.26
2017-05-01T03:50:45.417Z,63.35
2017-05-01T03:51:46.630Z,63.64
2017-05-01T03:52:47.866Z,63.35
2017-05-01T03:53:49.262Z,63.26
2017-05-01T03:54:50.545Z,63.83
2017-05-01T03:55:51.832Z,63.64
2017-05-01T03:56:53.081Z,63.64
2017-05-01T03:57:54.337Z,63.54
2017-05-01T03:58:55.664Z,64.11
2017-05-01T03:59:56.912Z,63.26
2017-05-01T04:00:58.176Z,63.45
2017-05-01T04:01:59.408Z,63.45
2017-05-01T04:03:00.635Z,63.17
2017-05-01T04:04:01.882Z,63.17
2017-05-01T04:05:03.188Z,63.07
2017-05-01T04:06:04.446Z,63.07
2017-05-01T04:07:05.693Z,63.35
2017-05-01T04:08:06.942Z,63.26
2017-05-01T04:09:08.190Z,63.45
2017-05-01T04:10:09.438Z,63.35
2017-05-01T04:11:10.699Z,63.35
2017-05-01T04:12:12.020Z,63.17
2017-05-01T04:13:13.323Z,63.26
2017-05-01T04:14:14.576Z,63.45
2017-05-01T04:15:15.809Z,64.11
2017-05-01T04:16:17.032Z,63.45
2017-05-01T04:17:18.289Z,63.26
2017-05-01T04:18:19.549Z,63.35
2017-05-01T04:19:20.894Z,63.26
2017-05-01T04:20:22.113Z,63.07
2017-05-01T04:21:23.353Z,63.26
2017-05-01T04:22:24.591Z,63.35
2017-05-01T04:23:25.878Z,63.26
2017-05-01T04:24:27.099Z,63.54
2017-05-01T04:25:28.346Z,63.35
2017-05-01T04:26:29.655Z,63.26
2017-05-01T04:27:30.919Z,63.45
2017-05-01T04:28:32.153Z,63.26
2017-05-01T04:29:33.389Z,63.26
2017-05-01T04:30:34.623Z,63.35
2017-05-01T04:31:35.864Z,63.35
2017-05-01T04:32:37.150Z,63.45
2017-05-01T04:33:38.381Z,63.35
2017-05-01T04:34:39.637Z,63.26
2017-05-01T04:35:40.896Z,63.17
2017-05-01T04:36:42.125Z,62.88
2017-05-01T04:37:43.398Z,62.91
2017-05-01T04:38:44.659Z,62.91
2017-05-01T04:39:45.878Z,62.72
2017-05-01T04:40:47.144Z,62.43
2017-05-01T04:41:48.386Z,62.24
2017-05-01T04:42:49.623Z,62.62
2017-05-01T04:43:50.875Z,62.72
2017-05-01T04:44:52.121Z,62.05
2017-05-01T04:45:53.373Z,62.24
2017-05-01T04:46:54.674Z,62.15
2017-05-01T04:47:55.882Z,62.15
2017-05-01T04:48:57.135Z,62.43
2017-05-01T04:49:58.397Z,61.86
2017-05-01T04:50:59.660Z,61.77
2017-05-01T04:52:00.959Z,61.58
2017-05-01T04:53:02.331Z,61.48
2017-05-01T04:54:03.573Z,61.58
2017-05-01T04:55:04.806Z,61.58
2017-05-01T04:56:06.045Z,61.48
2017-05-01T04:57:07.302Z,61.1
2017-05-01T04:58:08.673Z,60.72
2017-05-01T04:59:09.871Z,60.66
2017-05-01T05:00:11.175Z,60.56
2017-05-01T05:01:12.448Z,60.27
2017-05-01T05:02:13.705Z,59.99
2017-05-01T05:03:14.967Z,59.8
2017-05-01T05:04:16.205Z,59.61
2017-05-01T05:05:17.468Z,59.7
2017-05-01T05:06:18.705Z,59.42
2017-05-01T05:07:19.948Z,59.51
2017-05-01T05:08:21.235Z,59.42
2017-05-01T05:09:22.462Z,59.32
2017-05-01T05:10:23.721Z,59.42
2017-05-01T05:11:24.982Z,59.32
2017-05-01T05:12:26.225Z,59.7
2017-05-01T05:13:27.479Z,59.42
2017-05-01T05:14:28.747Z,60.08
2017-05-01T05:15:29.962Z,59.7
2017-05-01T05:16:31.241Z,59.89
2017-05-01T05:17:32.598Z,59.8
2017-05-01T05:18:33.829Z,59.7
2017-05-01T05:19:35.066Z,59.42
2017-05-01T05:20:36.320Z,59.32
2017-05-01T05:21:37.545Z,59.42
2017-05-01T05:22:38.854Z,59.7
2017-05-01T05:23:40.091Z,58.94
2017-05-01T05:24:41.373Z,58.84
2017-05-01T05:25:42.619Z,59.03
2017-05-01T05:26:43.859Z,58.75
2017-05-01T05:27:45.107Z,58.56
2017-05-01T05:28:46.357Z,58.3
2017-05-01T05:29:47.683Z,58.11
2017-05-01T05:30:48.982Z,58.3
2017-05-01T05:31:50.245Z,58.3
2017-05-01T05:32:51.470Z,57.73
2017-05-01T05:33:52.710Z,57.73
2017-05-01T05:34:53.954Z,57.45
2017-05-01T05:35:55.223Z,57.26
2017-05-01T05:36:56.513Z,57.26
2017-05-01T05:37:57.779Z,56.9
2017-05-01T05:38:59.053Z,56.9
2017-05-01T05:40:00.287Z,56.52
2017-05-01T05:41:01.560Z,56.14
2017-05-01T05:42:02.897Z,56.33
2017-05-01T05:43:04.302Z,56.81
2017-05-01T05:44:05.545Z,56.33
2017-05-01T05:45:06.826Z,56.02
2017-05-01T05:46:08.038Z,56.33
2017-05-01T05:47:09.302Z,57
2017-05-01T05:48:10.687Z,56.78
2017-05-01T05:49:11.834Z,57
2017-05-01T05:50:13.108Z,57
2017-05-01T05:51:14.340Z,56.97
2017-05-01T05:52:15.586Z,56.62
2017-05-01T05:53:17.058Z,56.71
2017-05-01T05:54:18.313Z,56.24
2017-05-01T05:55:19.552Z,56.33
2017-05-01T05:56:20.801Z,56.62
2017-05-01T05:57:22.036Z,56.52
2017-05-01T05:58:23.302Z,56.9
2017-05-01T05:59:24.553Z,56.24
2017-05-01T06:00:25.870Z,56.04
2017-05-01T06:01:27.166Z,55.95
2017-05-01T06:02:28.402Z,56.04
2017-05-01T06:03:29.642Z,56.04
2017-05-01T06:04:30.891Z,56.14
2017-05-01T06:05:32.127Z,55.95
2017-05-01T06:06:33.388Z,55.95
2017-05-01T06:07:34.627Z,56.24
2017-05-01T06:08:35.877Z,55.95
2017-05-01T06:09:37.095Z,55.95
2017-05-01T06:10:38.333Z,56.14
2017-05-01T06:11:39.582Z,55.85
2017-05-01T06:12:40.972Z,56.04
2017-05-01T06:13:42.319Z,56.04
2017-05-01T06:14:43.458Z,55.85
2017-05-01T06:15:44.699Z,55.76
2017-05-01T06:16:45.997Z,55.76
2017-05-01T06:17:47.323Z,55.69
2017-05-01T06:18:48.607Z,55.38
2017-05-01T06:19:49.843Z,55.47
2017-05-01T06:20:51.195Z,55.57
2017-05-01T06:21:52.428Z,55.47
2017-05-01T06:22:53.726Z,56.24
2017-05-01T06:23:55.098Z,55.47
2017-05-01T06:24:56.338Z,55.85
2017-05-01T06:25:57.571Z,55.66
2017-05-01T06:26:58.812Z,55.6
2017-05-01T06:28:00.059Z,55.6
2017-05-01T06:29:01.322Z,55.21
2017-05-01T06:30:02.559Z,55.12
2017-05-01T06:31:03.804Z,54.74
2017-05-01T06:32:05.049Z,55.12
2017-05-01T06:33:06.295Z,55.21
2017-05-01T06:34:07.533Z,55.31
2017-05-01T06:35:08.776Z,55.21
2017-05-01T06:36:10.018Z,55.41
2017-05-01T06:37:11.284Z,54.83
2017-05-01T06:38:12.694Z,54.93
2017-05-01T06:39:13.891Z,55.69
2017-05-01T06:40:15.140Z,55.57
2017-05-01T06:41:16.406Z,55.21
2017-05-01T06:42:17.644Z,55.88
2017-05-01T06:43:18.928Z,55.02
2017-05-01T06:44:20.188Z,54.93
2017-05-01T06:45:21.395Z,55.41
2017-05-01T06:46:22.638Z,55.21
2017-05-01T06:47:23.916Z,55.02
2017-05-01T06:48:25.156Z,54.64
2017-05-01T06:49:26.409Z,55.31
2017-05-01T06:50:27.678Z,55.31
2017-05-01T06:51:28.985Z,55.12
2017-05-01T06:52:30.274Z,55.21
2017-05-01T06:53:31.516Z,55.12
2017-05-01T06:54:32.760Z,55.12
2017-05-01T06:55:34.009Z,55.21
2017-05-01T06:56:35.250Z,55.21
2017-05-01T06:57:36.545Z,54.64
2017-05-01T06:58:37.736Z,54.36
2017-05-01T06:59:38.989Z,54.55
2017-05-01T07:00:40.228Z,54.45
2017-05-01T07:01:41.484Z,54.55
2017-05-01T07:02:42.706Z,54.55
2017-05-01T07:03:43.966Z,54.19
2017-05-01T07:04:45.235Z,53.72
2017-05-01T07:05:46.496Z,53.78
2017-05-01T07:06:47.729Z,53.59
2017-05-01T07:07:48.986Z,53.62
2017-05-01T07:08:50.239Z,53.72
2017-05-01T07:09:51.478Z,53.72
2017-05-01T07:10:52.793Z,53.43
2017-05-01T07:11:54.169Z,53.33
2017-05-01T07:12:55.335Z,53.24
2017-05-01T07:13:56.758Z,53.17
2017-05-01T07:14:58.008Z,52.98
2017-05-01T07:15:59.364Z,52.19
2017-05-01T07:17:00.621Z,52.38
2017-05-01T07:18:01.884Z,52.59
2017-05-01T07:19:03.121Z,52.5
2017-05-01T07:20:04.380Z,52.76
2017-05-01T07:21:05.695Z,52.03
2017-05-01T07:22:06.942Z,52.4
2017-05-01T07:23:08.177Z,52.12
2017-05-01T07:24:09.414Z,51.54
2017-05-01T07:25:10.697Z,51.83
2017-05-01T07:26:11.934Z,51.26
2017-05-01T07:27:13.192Z,51.35
2017-05-01T07:28:14.433Z,51.17
2017-05-01T07:29:15.725Z,50.98
2017-05-01T07:30:16.989Z,51.35
2017-05-01T07:31:18.209Z,51.29
2017-05-01T07:32:19.518Z,50.81
2017-05-01T07:33:20.738Z,50.33
2017-05-01T07:34:21.990Z,50.07
2017-05-01T07:35:23.269Z,49.69
2017-05-01T07:36:24.523Z,49.49
2017-05-01T07:37:25.758Z,48.64
2017-05-01T07:38:26.996Z,48.73
2017-05-01T07:39:28.237Z,48.83
2017-05-01T07:40:29.488Z,48.73
2017-05-01T07:41:30.777Z,48.47
2017-05-01T07:42:32.025Z,48.38
2017-05-01T07:43:33.265Z,48.73
2017-05-01T07:44:34.520Z,48.28
2017-05-01T07:45:35.777Z,47.8
2017-05-01T07:46:37.018Z,47.71
2017-05-01T07:47:38.281Z,47.71
2017-05-01T07:48:39.561Z,47.8
2017-05-01T07:49:40.779Z,47.42
2017-05-01T07:50:42.020Z,47.52
2017-05-01T07:51:43.286Z,47.71
2017-05-01T07:52:44.522Z,47.44
2017-05-01T07:53:45.782Z,47.34
2017-05-01T07:54:47.007Z,46.39
2017-05-01T07:55:48.252Z,45.72
2017-05-01T07:56:49.489Z,46.2
2017-05-01T07:57:50.734Z,46.46
2017-05-01T07:58:51.971Z,47.13
2017-05-01T07:59:53.242Z,48.64
2017-05-01T08:00:54.489Z,48.35
2017-05-01T08:01:55.730Z,48.44
2017-05-01T08:02:57.003Z,48.73
2017-05-01T08:03:58.246Z,48.44
2017-05-01T08:04:59.485Z,48.83
2017-05-01T08:06:00.730Z,48.18
2017-05-01T08:07:01.977Z,48.25
2017-05-01T08:08:03.313Z,48.73
2017-05-01T08:09:04.555Z,48.38
2017-05-01T08:10:05.793Z,48.73
2017-05-01T08:11:07.031Z,48.73
2017-05-01T08:12:08.271Z,48.75
2017-05-01T08:13:09.517Z,48.57
2017-05-01T08:14:10.787Z,48.38
2017-05-01T08:15:12.061Z,47.61
2017-05-01T08:16:13.382Z,46.75
2017-05-01T08:17:14.617Z,46.75
2017-05-01T08:18:15.852Z,47.23
2017-05-01T08:19:17.099Z,47.13
2017-05-01T08:20:18.368Z,47.23
2017-05-01T08:21:19.701Z,46.75
2017-05-01T08:22:20.941Z,46.94
2017-05-01T08:23:22.202Z,47.23
2017-05-01T08:24:23.440Z,47.23
2017-05-01T08:25:24.680Z,47.32
2017-05-01T08:26:26.077Z,47.32
2017-05-01T08:27:27.309Z,46.96
2017-05-01T08:28:28.563Z,46.48
2017-05-01T08:29:29.787Z,46.2
2017-05-01T08:30:31.053Z,45.07
2017-05-01T08:31:32.282Z,45.45
2017-05-01T08:32:33.630Z,45.36
2017-05-01T08:33:34.885Z,44.62
2017-05-01T08:34:36.124Z,44.33
2017-05-01T08:35:37.376Z,43.56
2017-05-01T08:36:38.611Z,42.72
2017-05-01T08:37:39.851Z,42.44
2017-05-01T08:38:41.150Z,42.24
2017-05-01T08:39:42.384Z,42.44
2017-05-01T08:40:43.631Z,42.05
2017-05-01T08:41:44.934Z,41.88
2017-05-01T08:42:46.168Z,41.02
2017-05-01T08:43:47.430Z,40.56
2017-05-01T08:44:48.666Z,40.47
2017-05-01T08:45:49.915Z,39.31
2017-05-01T08:46:51.193Z,39.62
2017-05-01T08:47:52.450Z,38.76
2017-05-01T08:48:53.701Z,38.95
2017-05-01T08:49:54.958Z,38.37
2017-05-01T08:50:56.223Z,38.56
2017-05-01T08:51:57.486Z,38.76
2017-05-01T08:52:58.846Z,37.72
2017-05-01T08:54:00.074Z,37.72
2017-05-01T08:55:01.344Z,37.62
2017-05-01T08:56:02.584Z,37.62
2017-05-01T08:57:03.893Z,37.16
2017-05-01T08:58:05.157Z,36.58
2017-05-01T08:59:06.426Z,37.16
2017-05-01T09:00:07.713Z,36.3
2017-05-01T09:01:08.963Z,36.3
2017-05-01T09:02:10.202Z,36.49
2017-05-01T09:03:11.487Z,36.3
2017-05-01T09:04:12.747Z,35.63
2017-05-01T09:05:14.038Z,35.43
2017-05-01T09:06:15.314Z,35.36
2017-05-01T09:07:16.563Z,34.49
2017-05-01T09:08:17.789Z,35.06
2017-05-01T09:09:19.048Z,35.18
2017-05-01T09:10:20.319Z,34.89
2017-05-01T09:11:21.542Z,34.41
2017-05-01T09:12:22.805Z,33.56
2017-05-01T09:13:24.046Z,33.75
2017-05-01T09:14:25.290Z,32.98
2017-05-01T09:15:26.596Z,32.62
2017-05-01T09:16:27.843Z,32.34
2017-05-01T09:17:29.090Z,32.06
2017-05-01T09:18:30.350Z,31.75
2017-05-01T09:19:31.606Z,31.57
2017-05-01T09:20:32.848Z,30.9
2017-05-01T09:21:34.094Z,30.8
2017-05-01T09:22:35.353Z,31.09
2017-05-01T09:23:36.592Z,30.73
2017-05-01T09:24:37.921Z,29.97
2017-05-01T09:25:39.153Z,30.07
2017-05-01T09:26:40.399Z,29.86
2017-05-01T09:27:41.642Z,30.15
2017-05-01T09:28:42.906Z,30.61
2017-05-01T09:29:44.148Z,31.09
2017-05-01T09:30:45.409Z,32.14
2017-05-01T09:31:46.904Z,32.71
2017-05-01T09:32:48.137Z,33.39
2017-05-01T09:33:49.391Z,33.66
2017-05-01T09:34:50.661Z,33.85
2017-05-01T09:35:52.044Z,34.33
2017-05-01T09:36:53.297Z,34.14
2017-05-01T09:37:54.599Z,33.56
2017-05-01T09:38:55.814Z,33.66
2017-05-01T09:39:57.063Z,33.29
2017-05-01T09:40:58.348Z,33.48
2017-05-01T09:41:59.652Z,33.39
2017-05-01T09:43:00.903Z,33.1
2017-05-01T09:44:02.162Z,32.82
2017-05-01T09:45:03.430Z,33.48
2017-05-01T09:46:04.686Z,33.1
2017-05-01T09:47:05.928Z,33.67
2017-05-01T09:48:07.193Z,34.16
2017-05-01T09:49:08.443Z,34.35
2017-05-01T09:50:09.693Z,34.74
2017-05-01T09:51:10.941Z,34.83
2017-05-01T09:52:12.194Z,34.06
2017-05-01T09:53:13.461Z,33.67
2017-05-01T09:54:14.735Z,33.58
2017-05-01T09:55:15.966Z,34.25
2017-05-01T09:56:17.266Z,34.74
2017-05-01T09:57:18.535Z,34.54
2017-05-01T09:58:19.809Z,34.92
2017-05-01T09:59:21.045Z,34.45
2017-05-01T10:00:22.298Z,34.83
2017-05-01T10:01:23.644Z,34.83
2017-05-01T10:02:24.896Z,34.45
2017-05-01T10:03:26.135Z,34.45
2017-05-01T10:04:27.603Z,34.74
2017-05-01T10:05:28.852Z,35.02
2017-05-01T10:06:30.099Z,35.68
2017-05-01T10:07:31.412Z,35.66
2017-05-01T10:08:32.792Z,36.24
2017-05-01T10:09:34.034Z,36.62
2017-05-01T10:10:35.283Z,36.72
2017-05-01T10:11:36.556Z,37.18
2017-05-01T10:12:37.796Z,37.57
2017-05-01T10:13:39.058Z,37.01
2017-05-01T10:14:40.386Z,37.08
2017-05-01T10:15:41.630Z,37.18
2017-05-01T10:16:42.895Z,37.57
2017-05-01T10:17:44.149Z,37.47
2017-05-01T10:18:45.609Z,37.95
2017-05-01T10:19:46.868Z,38.22
2017-05-01T10:20:48.130Z,38.6
2017-05-01T10:21:49.373Z,38.89
2017-05-01T10:22:50.617Z,39.47
2017-05-01T10:23:51.879Z,39.47
2017-05-01T10:24:53.405Z,39.47
2017-05-01T10:25:54.640Z,39.76
2017-05-01T10:26:55.899Z,39.47
2017-05-01T10:27:57.360Z,40.43
2017-05-01T10:28:58.602Z,40.14
2017-05-01T10:29:59.877Z,40.14
2017-05-01T10:31:01.149Z,41.29
2017-05-01T10:32:02.374Z,40.52
2017-05-01T10:33:03.639Z,40.62
2017-05-01T10:34:04.862Z,40.62
2017-05-01T10:35:06.345Z,40.06
2017-05-01T10:36:07.649Z,39.49
2017-05-01T10:37:08.894Z,39.78
2017-05-01T10:38:10.138Z,39.31
2017-05-01T10:39:11.466Z,39.12
2017-05-01T10:40:12.704Z,39.03
2017-05-01T10:41:13.986Z,38.84
2017-05-01T10:42:15.262Z,38.74
2017-05-01T10:43:16.566Z,38.45
2017-05-01T10:44:17.784Z,38.18
2017-05-01T10:45:19.014Z,38.07
2017-05-01T10:46:20.256Z,38.64
2017-05-01T10:47:21.854Z,38.74
2017-05-01T10:48:23.109Z,38.64
2017-05-01T10:49:24.473Z,38.93
2017-05-01T10:50:25.715Z,38.84
2017-05-01T10:51:26.994Z,38.84
2017-05-01T10:52:28.221Z,38.74
2017-05-01T10:53:29.562Z,38.74
2017-05-01T10:54:30.828Z,38.64
2017-05-01T10:55:32.050Z,38.64
2017-05-01T10:56:33.310Z,38.64
2017-05-01T10:57:34.550Z,39.41
2017-05-01T10:58:35.904Z,39.22
2017-05-01T10:59:37.137Z,39.58
2017-05-01T11:00:38.467Z,39.58
2017-05-01T11:01:39.710Z,40.25
2017-05-01T11:02:40.946Z,40.55
2017-05-01T11:03:42.205Z,40.45
2017-05-01T11:04:43.452Z,39.95
2017-05-01T11:05:44.683Z,40.81
2017-05-01T11:06:45.938Z,40.91
2017-05-01T11:07:47.190Z,41.77
2017-05-01T11:08:48.659Z,41.29
2017-05-01T11:09:49.890Z,41.49
2017-05-01T11:10:51.242Z,41.67
2017-05-01T11:11:52.494Z,41.29
2017-05-01T11:12:53.741Z,41.2
2017-05-01T11:13:55.021Z,41.2
2017-05-01T11:14:56.249Z,41.96
2017-05-01T11:15:57.525Z,42.16
2017-05-01T11:16:58.754Z,43.31
2017-05-01T11:18:00.074Z,43.88
2017-05-01T11:19:01.362Z,44.84
2017-05-01T11:20:02.735Z,45.61
2017-05-01T11:21:03.960Z,46.19
2017-05-01T11:22:05.221Z,46.96
2017-05-01T11:23:06.458Z,47.34
2017-05-01T11:24:07.816Z,47.63
2017-05-01T11:25:09.079Z,47.82
2017-05-01T11:26:10.325Z,48.02
2017-05-01T11:27:11.596Z,48.21
2017-05-01T11:28:12.875Z,48.69
2017-05-01T11:29:14.114Z,50.1
2017-05-01T11:30:15.399Z,49.91
2017-05-01T11:31:16.700Z,50.78
2017-05-01T11:32:17.961Z,50.78
2017-05-01T11:33:19.182Z,50.68
2017-05-01T11:34:20.423Z,51.25
2017-05-01T11:35:21.722Z,51.83
2017-05-01T11:36:22.968Z,51.32
2017-05-01T11:37:24.217Z,51.61
2017-05-01T11:38:25.477Z,51.51
2017-05-01T11:39:26.722Z,52
2017-05-01T11:40:27.976Z,52.09
2017-05-01T11:41:29.357Z,52.12
2017-05-01T11:42:30.771Z,51.83
2017-05-01T11:43:31.915Z,51.54
2017-05-01T11:44:33.174Z,51.83
2017-05-01T11:45:34.430Z,50.96
2017-05-01T11:46:35.685Z,51.64
2017-05-01T11:47:36.993Z,50.96
2017-05-01T11:48:38.223Z,51.25
2017-05-01T11:49:39.598Z,50.96
2017-05-01T11:50:40.869Z,50.96
2017-05-01T11:51:42.090Z,51.09
2017-05-01T11:52:43.333Z,51.76
2017-05-01T11:53:44.584Z,51.25
2017-05-01T11:54:45.834Z,51.83
2017-05-01T11:55:47.083Z,52.22
2017-05-01T11:56:48.338Z,52.67
2017-05-01T11:57:49.577Z,52.57
2017-05-01T11:58:50.822Z,53.34
2017-05-01T11:59:52.119Z,53.91
2017-05-01T12:00:53.534Z,54.17
2017-05-01T12:01:54.894Z,54.01
2017-05-01T12:02:56.139Z,53.24
2017-05-01T12:03:57.407Z,54.01
2017-05-01T12:04:58.650Z,53.72
2017-05-01T12:05:59.895Z,54.01
2017-05-01T12:07:01.248Z,53.53
2017-05-01T12:08:02.505Z,53.34
2017-05-01T12:09:03.754Z,53.27
2017-05-01T12:10:04.993Z,52.76
2017-05-01T12:11:06.250Z,52.86
2017-05-01T12:12:07.639Z,52.95
2017-05-01T12:13:08.884Z,52.67
2017-05-01T12:14:10.139Z,53.05
2017-05-01T12:15:11.368Z,53.24
2017-05-01T12:16:12.655Z,53.99
2017-05-01T12:17:13.926Z,54.08
2017-05-01T12:18:15.299Z,54.66
2017-05-01T12:19:16.658Z,54.46
2017-05-01T12:20:17.960Z,54.66
2017-05-01T12:21:19.202Z,54.46
2017-05-01T12:22:20.454Z,54.46
2017-05-01T12:23:21.725Z,54.56
2017-05-01T12:24:22.978Z,55.4
2017-05-01T12:25:24.235Z,55.3
2017-05-01T12:26:25.471Z,55.3
2017-05-01T12:27:26.717Z,55.87
2017-05-01T12:28:27.976Z,56.45
2017-05-01T12:29:29.201Z,56.16
2017-05-01T12:30:30.454Z,57.03
2017-05-01T12:31:31.683Z,56.64
2017-05-01T12:32:32.945Z,57.12
2017-05-01T12:33:34.197Z,57.41
2017-05-01T12:34:35.470Z,57.12
2017-05-01T12:35:36.688Z,57.41
2017-05-01T12:36:37.933Z,57.79
2017-05-01T12:37:39.209Z,57.31
2017-05-01T12:38:40.453Z,57.21
2017-05-01T12:39:41.687Z,56.74
2017-05-01T12:40:42.928Z,56.45
2017-05-01T12:41:44.182Z,56.48
2017-05-01T12:42:45.667Z,56.09
2017-05-01T12:43:47.018Z,55.13
2017-05-01T12:44:48.268Z,54.66
2017-05-01T12:45:49.515Z,54.66
2017-05-01T12:46:50.772Z,54.37
2017-05-01T12:47:52.051Z,54.37
2017-05-01T12:48:53.372Z,54.39
2017-05-01T12:49:54.636Z,54.01
2017-05-01T12:50:55.860Z,53.94
2017-05-01T12:51:57.142Z,53.17
2017-05-01T12:52:58.350Z,52.4
2017-05-01T12:53:59.627Z,51.76
2017-05-01T12:55:00.872Z,51.76
2017-05-01T12:56:02.169Z,51.37
2017-05-01T12:57:03.492Z,50.42
2017-05-01T12:58:04.741Z,50.7
2017-05-01T12:59:06.002Z,50.44
2017-05-01T13:00:07.353Z,49.93
2017-05-01T13:01:08.595Z,49.77
2017-05-01T13:02:09.840Z,50.13
2017-05-01T13:03:11.104Z,49.93
2017-05-01T13:04:12.380Z,49.46
2017-05-01T13:05:13.615Z,49.84
2017-05-01T13:06:14.869Z,49.74
2017-05-01T13:07:16.257Z,49.93
2017-05-01T13:08:17.486Z,50.13
2017-05-01T13:09:18.745Z,49.93
2017-05-01T13:10:19.972Z,49.84